Time;durP1;ratioP1;P1;durP2;ratioP2;P2;SDS_P1;SDS_P2;PMS_P1;PMS_P2;Temp;Humidity;BMP_temperature;BMP_pressure;BME280_temperature;BME280_humidity;BME280_pressure;Samples;Min_cycle;Max_cycle;Signal;HPM_P1;HPM_P2
2022/08/02 00:01:40;;;;;;;5.95;3.37;;;;;;;26.24;43.17;99451.06;4455320;32;34419;-62
2022/08/02 00:04:08;;;;;;;5.25;3.15;;;;;;;26.34;42.91;99449.72;4454891;32;33608;-61
2022/08/02 00:06:36;;;;;;;5.03;3.30;;;;;;;26.09;43.48;99445.03;4458693;32;35019;-61
2022/08/02 00:09:04;;;;;;;4.78;3.30;;;;;;;25.86;43.99;99440.16;4451717;32;32604;-62
2022/08/02 00:23:17;;;;;;;5.32;3.28;;;;;;;25.76;44.17;99448.00;4455337;32;33275;-61
2022/08/02 00:25:44;;;;;;;5.47;3.08;;;;;;;25.60;44.56;99448.53;4460951;32;33469;-61
2022/08/02 00:28:23;;;;;;;5.25;3.20;;;;;;;25.76;44.15;99443.34;4455475;32;34653;-61
2022/08/02 00:30:58;;;;;;;6.97;3.42;;;;;;;25.79;44.08;99444.81;4453718;32;34885;-63
2022/08/02 00:33:26;;;;;;;6.25;3.17;;;;;;;25.78;44.09;99445.91;4457331;32;34170;-62
2022/08/02 00:36:14;;;;;;;6.25;3.45;;;;;;;25.83;44.00;99453.47;4452076;32;33330;-62
2022/08/02 00:38:42;;;;;;;4.57;3.08;;;;;;;25.70;44.21;99446.16;4464731;32;33880;-62
2022/08/02 00:41:15;;;;;;;4.68;3.15;;;;;;;25.78;44.05;99451.38;4456926;32;33024;-62
2022/08/02 00:43:43;;;;;;;5.85;3.10;;;;;;;25.84;43.85;99453.25;4460110;32;35081;-61
2022/08/02 00:46:12;;;;;;;6.00;3.30;;;;;;;25.78;43.90;99457.69;4454442;32;32029;-62
2022/08/02 00:48:39;;;;;;;5.37;3.05;;;;;;;25.66;44.17;99455.88;4451895;32;34918;-61
2022/08/02 00:51:10;;;;;;;8.95;3.67;;;;;;;25.71;44.19;99450.56;4457330;32;33813;-61
2022/08/02 00:53:38;;;;;;;7.28;3.05;;;;;;;25.62;44.48;99457.34;4459477;32;33853;-62
2022/08/02 00:56:06;;;;;;;7.12;3.55;;;;;;;25.58;44.61;99461.59;4451521;32;34422;-62
2022/08/02 00:58:34;;;;;;;4.25;2.83;;;;;;;25.62;44.63;99460.09;4460012;32;33396;-61
2022/08/02 01:01:02;;;;;;;7.85;3.25;;;;;;;25.65;44.79;99463.25;4469444;32;33848;-63
2022/08/02 01:03:30;;;;;;;5.30;3.40;;;;;;;25.66;44.78;99466.84;4453315;32;32735;-62
2022/08/02 01:05:57;;;;;;;5.40;2.83;;;;;;;25.70;44.82;99459.84;4462928;32;33577;-62
2022/08/02 01:08:38;;;;;;;4.78;3.03;;;;;;;25.69;44.77;99464.50;4461162;32;33714;-63
2022/08/02 01:11:06;;;;;;;5.72;3.80;;;;;;;25.74;44.68;99464.66;4455836;32;33088;-62
2022/08/02 01:13:34;;;;;;;5.60;3.15;;;;;;;25.82;44.44;99454.53;4463213;32;33531;-62
2022/08/02 01:16:10;;;;;;;5.75;3.30;;;;;;;25.87;44.19;99454.69;4440769;32;33134;-62
2022/08/02 01:18:40;;;;;;;5.60;3.62;;;;;;;25.64;44.61;99456.06;4447158;32;34103;-63
2022/08/02 01:21:46;;;;;;;6.47;3.60;;;;;;;25.44;45.25;99456.19;4442188;32;35223;-62
2022/08/02 01:24:22;;;;;;;7.72;3.47;;;;;;;25.40;45.44;99451.38;4457656;32;35114;-61
2022/08/02 01:27:11;;;;;;;9.88;3.83;;;;;;;25.41;45.36;99448.41;4450965;32;33289;-62
2022/08/02 01:29:42;;;;;;;5.62;3.28;;;;;;;25.50;45.60;99462.69;4445330;32;33698;-63
2022/08/02 01:32:14;;;;;;;6.22;3.12;;;;;;;25.54;45.19;99466.69;4443538;32;34995;-62
2022/08/02 01:34:54;;;;;;;6.90;3.55;;;;;;;25.55;45.26;99471.09;4458329;32;32817;-62
2022/08/02 01:37:27;;;;;;;5.15;3.75;;;;;;;25.56;45.04;99461.84;4456595;32;34318;-62
2022/08/02 01:39:57;;;;;;;6.68;3.55;;;;;;;25.53;44.97;99465.00;4452721;32;35018;-62
2022/08/02 01:42:26;;;;;;;4.80;3.33;;;;;;;25.49;45.08;99469.22;4450120;32;34563;-62
2022/08/02 01:44:54;;;;;;;5.30;3.53;;;;;;;25.34;45.40;99466.78;4441395;32;33571;-61
2022/08/02 01:47:26;;;;;;;5.05;3.33;;;;;;;25.36;45.32;99470.16;4441434;32;33482;-61
2022/08/02 01:49:57;;;;;;;5.07;3.42;;;;;;;25.26;45.52;99472.47;4446428;32;33640;-61
2022/08/02 01:52:26;;;;;;;5.80;3.60;;;;;;;25.26;45.48;99472.47;4440951;32;34319;-61
2022/08/02 01:55:02;;;;;;;5.93;3.10;;;;;;;25.27;45.50;99475.03;4447399;32;35024;-61
2022/08/02 01:57:42;;;;;;;5.55;3.70;;;;;;;25.18;45.73;99484.53;4451587;32;33547;-62
2022/08/02 02:00:10;;;;;;;7.95;4.00;;;;;;;25.09;45.97;99488.53;4455756;32;34626;-61
2022/08/02 02:02:43;;;;;;;4.60;3.15;;;;;;;25.01;46.16;99483.31;4452018;32;34862;-61
2022/08/02 02:05:16;;;;;;;5.55;3.65;;;;;;;25.04;46.11;99491.94;4451802;32;34690;-62
2022/08/02 02:07:44;;;;;;;6.60;3.58;;;;;;;25.06;46.06;99492.53;4449521;32;33247;-61
2022/08/02 02:10:14;;;;;;;4.62;3.33;;;;;;;24.99;46.23;99486.25;4453231;32;34869;-61
2022/08/02 02:12:43;;;;;;;5.53;3.45;;;;;;;24.97;46.30;99496.56;4450578;32;33677;-61
2022/08/02 02:15:11;;;;;;;5.35;3.83;;;;;;;24.98;46.51;99489.22;4453904;32;33454;-61
2022/08/02 02:17:44;;;;;;;6.05;3.67;;;;;;;24.98;46.59;99491.94;4451812;32;32465;-62
2022/08/02 02:20:31;;;;;;;6.18;3.78;;;;;;;25.01;46.51;99502.47;4453299;32;34699;-62
2022/08/02 02:22:59;;;;;;;5.20;3.80;;;;;;;24.93;46.68;99499.94;4460495;32;33889;-62
2022/08/02 02:25:30;;;;;;;6.45;3.58;;;;;;;24.94;46.69;99501.62;4446615;32;33919;-63
2022/08/02 02:28:05;;;;;;;6.18;3.85;;;;;;;24.92;46.71;99499.09;4459116;32;33342;-63
2022/08/02 02:30:34;;;;;;;8.55;3.78;;;;;;;25.03;46.63;99494.88;4455452;32;34086;-62
2022/08/02 02:33:03;;;;;;;6.07;4.07;;;;;;;24.90;46.91;99490.25;4464242;32;32631;-62
2022/08/02 02:35:33;;;;;;;7.07;4.47;;;;;;;24.86;47.01;99492.59;4450155;32;34817;-63
2022/08/02 02:38:03;;;;;;;5.45;3.78;;;;;;;24.78;47.28;99492.81;4448330;32;34315;-62
2022/08/02 02:40:31;;;;;;;8.27;4.00;;;;;;;24.86;47.15;99502.69;4448390;32;33084;-62
2022/08/02 02:43:00;;;;;;;5.15;3.55;;;;;;;24.66;47.58;99505.47;4453141;32;32878;-62
2022/08/02 02:45:29;;;;;;;5.72;3.87;;;;;;;24.75;47.32;99500.59;4459939;32;35451;-62
2022/08/02 02:47:58;;;;;;;5.43;3.65;;;;;;;24.78;47.06;99505.66;4443176;32;33289;-62
2022/08/02 02:50:26;;;;;;;10.77;4.30;;;;;;;24.69;47.40;99512.38;4467439;32;34718;-63
2022/08/02 02:52:54;;;;;;;5.57;3.92;;;;;;;24.71;47.28;99515.78;4466818;32;35973;-63
2022/08/02 02:55:23;;;;;;;5.03;3.72;;;;;;;24.52;47.75;99506.50;4459079;32;33974;-63
2022/08/02 02:57:50;;;;;;;6.95;3.85;;;;;;;24.65;47.31;99498.28;4448088;32;33237;-63
2022/08/02 03:01:26;;;;;;;6.55;4.22;;;;;;;24.30;48.21;99493.03;4462866;32;33934;-63
2022/08/02 03:03:06;;;;;;;6.78;4.35;;;;;;;24.37;47.97;99493.88;4462630;32;34220;-64
2022/08/02 03:05:34;;;;;;;6.07;3.22;;;;;;;24.44;47.85;99493.06;4446227;32;34886;-63
2022/08/02 03:08:01;;;;;;;6.18;3.78;;;;;;;24.57;47.62;99496.63;4449983;32;33323;-63
2022/08/02 03:10:29;;;;;;;5.97;4.07;;;;;;;24.48;47.77;99486.94;4454496;32;33854;-63
2022/08/02 03:12:57;;;;;;;5.65;3.95;;;;;;;24.38;47.97;99479.12;4450039;32;35020;-63
2022/08/02 03:15:26;;;;;;;6.15;3.97;;;;;;;24.45;47.73;99475.59;4461836;32;34759;-63
2022/08/02 03:17:54;;;;;;;6.57;3.67;;;;;;;24.46;47.84;99483.56;4455609;32;33229;-63
2022/08/02 03:20:21;;;;;;;5.55;3.65;;;;;;;24.48;48.09;99472.44;4455278;32;34661;-61
2022/08/02 03:22:49;;;;;;;6.40;4.37;;;;;;;24.50;47.88;99473.91;4461621;32;33935;-61
2022/08/02 03:25:17;;;;;;;5.85;3.40;;;;;;;24.46;47.86;99482.72;4463450;32;34920;-61
2022/08/02 03:27:45;;;;;;;5.80;3.83;;;;;;;24.32;48.22;99485.44;4464544;32;34478;-61
2022/08/02 03:30:13;;;;;;;6.18;4.20;;;;;;;24.42;48.12;99485.06;4454932;32;34733;-61
2022/08/02 03:32:44;;;;;;;8.52;4.62;;;;;;;24.42;48.06;99489.69;4461173;32;34840;-61
2022/08/02 03:35:14;;;;;;;8.80;4.80;;;;;;;24.26;48.50;99496.38;4456166;32;33901;-61
2022/08/02 03:37:51;;;;;;;8.05;4.15;;;;;;;24.31;48.24;99497.44;4455063;32;34337;-61
2022/08/02 03:40:19;;;;;;;5.90;4.10;;;;;;;24.36;48.27;99497.63;4450174;32;34714;-61
2022/08/02 03:42:48;;;;;;;6.78;3.80;;;;;;;24.26;48.62;99499.97;4440816;32;34735;-61
2022/08/02 03:45:16;;;;;;;7.22;4.32;;;;;;;24.03;49.30;99513.19;4456935;32;32628;-62
2022/08/02 03:47:43;;;;;;;6.68;4.47;;;;;;;24.30;48.63;99501.25;4440233;32;33469;-60
2022/08/02 03:50:12;;;;;;;9.60;4.50;;;;;;;24.36;48.39;99505.00;4454428;32;34762;-61
2022/08/02 03:52:41;;;;;;;6.70;3.92;;;;;;;24.32;48.59;99496.38;4454096;32;34079;-61
2022/08/02 03:55:10;;;;;;;6.10;4.22;;;;;;;24.24;49.03;99506.69;4453582;32;34931;-61
2022/08/02 03:57:40;;;;;;;7.55;4.40;;;;;;;24.32;48.78;99501.84;4454209;32;34663;-61
2022/08/02 04:00:09;;;;;;;4.65;3.00;;;;;;;24.25;48.82;99514.69;4454603;32;34857;-61
2022/08/02 04:02:38;;;;;;;8.02;4.40;;;;;;;24.24;48.66;99515.75;4454061;32;33657;-61
2022/08/02 04:05:06;;;;;;;6.97;4.75;;;;;;;24.27;48.53;99520.81;4456724;32;32151;-61
2022/08/02 04:07:34;;;;;;;6.68;4.15;;;;;;;24.33;48.40;99519.97;4467112;32;34911;-63
2022/08/02 04:10:22;;;;;;;8.00;4.10;;;;;;;24.30;48.46;99519.53;4452630;32;32765;-61
2022/08/02 04:12:49;;;;;;;7.80;4.45;;;;;;;24.44;48.16;99512.22;4452070;32;33897;-61
2022/08/02 04:15:17;;;;;;;5.80;4.00;;;;;;;24.30;48.26;99520.37;4444540;32;33573;-61
2022/08/02 04:17:49;;;;;;;4.37;3.15;;;;;;;24.31;48.18;99529.44;4455831;32;33599;-61
2022/08/02 04:20:19;;;;;;;6.75;4.30;;;;;;;24.21;48.49;99535.31;4462637;32;33424;-61
2022/08/02 04:22:51;;;;;;;8.68;4.85;;;;;;;24.07;48.82;99526.22;4461246;32;33956;-61
2022/08/02 04:25:19;;;;;;;6.20;4.00;;;;;;;24.33;48.27;99527.31;4440429;32;34697;-61
2022/08/02 04:28:02;;;;;;;7.03;4.32;;;;;;;24.34;48.34;99529.84;4453711;32;33474;-60
2022/08/02 04:30:46;;;;;;;6.12;4.25;;;;;;;24.16;48.60;99535.06;4447008;32;33435;-60
2022/08/02 04:33:14;;;;;;;5.93;4.12;;;;;;;24.39;48.30;99538.25;4455566;32;35176;-61
2022/08/02 04:35:43;;;;;;;5.47;3.95;;;;;;;24.51;48.07;99534.94;4448621;32;34981;-61
2022/08/02 04:38:14;;;;;;;6.28;4.28;;;;;;;24.64;47.91;99535.75;4463959;32;33804;-61
2022/08/02 04:40:54;;;;;;;5.60;3.78;;;;;;;24.77;47.81;99539.56;4455141;32;33996;-61
2022/08/02 04:43:22;;;;;;;9.77;3.92;;;;;;;24.92;47.17;99533.88;4454180;32;35036;-61
2022/08/02 04:45:54;;;;;;;5.75;3.90;;;;;;;25.00;46.95;99530.88;4464623;32;34248;-60
2022/08/02 04:48:22;;;;;;;5.80;3.80;;;;;;;24.96;46.78;99527.72;4460308;32;34948;-64
2022/08/02 04:50:50;;;;;;;7.20;4.37;;;;;;;25.09;46.58;99529.59;4457532;32;33862;-64
2022/08/02 04:53:17;;;;;;;6.80;4.60;;;;;;;25.09;46.65;99529.59;4445129;32;33918;-61
2022/08/02 04:55:45;;;;;;;7.68;4.28;;;;;;;25.19;46.61;99529.19;4455529;32;32918;-61
2022/08/02 04:58:13;;;;;;;7.60;4.75;;;;;;;25.31;46.53;99538.44;4452848;32;33243;-62
2022/08/02 05:01:01;;;;;;;6.57;3.90;;;;;;;25.46;46.27;99549.13;4461189;32;33715;-63
2022/08/02 05:03:29;;;;;;;6.97;4.20;;;;;;;25.55;46.22;99548.69;4459785;32;34091;-62
2022/08/02 05:05:57;;;;;;;9.32;4.40;;;;;;;25.59;46.28;99545.50;4458050;32;34585;-61
2022/08/02 05:08:24;;;;;;;6.15;4.10;;;;;;;25.67;45.99;99554.31;4458295;32;33327;-62
2022/08/02 05:10:52;;;;;;;6.90;4.20;;;;;;;25.67;46.11;99558.94;4463435;32;34625;-61
2022/08/02 05:13:20;;;;;;;5.68;4.30;;;;;;;25.85;45.82;99558.28;4454280;32;32883;-63
2022/08/02 05:15:49;;;;;;;8.30;4.95;;;;;;;25.95;45.95;99561.38;4458135;32;33553;-63
2022/08/02 05:18:17;;;;;;;6.25;3.83;;;;;;;26.00;46.10;99551.44;4451351;32;33510;-63
2022/08/02 05:20:45;;;;;;;6.43;4.40;;;;;;;26.12;46.01;99567.19;4454968;32;32175;-61
2022/08/02 05:23:12;;;;;;;8.55;4.40;;;;;;;26.24;45.72;99566.25;4458224;32;33973;-60
2022/08/02 05:25:40;;;;;;;8.90;4.70;;;;;;;26.12;45.80;99581.75;4454353;32;32202;-61
2022/08/02 05:28:07;;;;;;;7.03;4.90;;;;;;;26.09;45.89;99576.69;4456369;32;33454;-61
2022/08/02 05:30:39;;;;;;;6.55;4.35;;;;;;;26.36;45.04;99576.53;4465346;32;33025;-61
2022/08/02 05:33:07;;;;;;;7.45;4.85;;;;;;;26.33;45.10;99580.56;4458777;32;35099;-61
2022/08/02 05:35:34;;;;;;;6.62;4.45;;;;;;;26.55;44.75;99588.44;4453583;32;34827;-61
2022/08/02 05:38:02;;;;;;;7.00;4.90;;;;;;;26.54;44.43;99584.88;4453633;32;33699;-61
2022/08/02 05:40:30;;;;;;;5.57;3.83;;;;;;;26.55;44.43;99592.06;4455684;32;34632;-62
2022/08/02 05:42:58;;;;;;;5.28;3.83;;;;;;;26.66;43.81;99585.84;4450226;32;32616;-60
2022/08/02 05:45:25;;;;;;;4.75;3.22;;;;;;;26.70;44.14;99592.56;4451427;32;34898;-61
2022/08/02 05:47:53;;;;;;;6.35;3.65;;;;;;;26.81;43.79;99592.91;4450137;32;33216;-61
2022/08/02 05:50:21;;;;;;;10.73;4.50;;;;;;;26.77;43.78;99591.66;4461508;32;33702;-61
2022/08/02 05:53:03;;;;;;;6.00;4.03;;;;;;;26.87;43.88;99589.25;4453992;32;34295;-61
2022/08/02 05:55:47;;;;;;;5.82;3.97;;;;;;;27.02;43.26;99589.75;4436422;32;32021;-61
2022/08/02 05:58:35;;;;;;;6.80;4.40;;;;;;;27.01;43.12;99601.81;4435985;32;31897;-61
2022/08/02 06:01:04;;;;;;;5.72;3.95;;;;;;;27.13;42.75;99593.69;4449087;32;32705;-60
2022/08/02 06:03:38;;;;;;;5.25;3.70;;;;;;;27.14;42.67;99587.97;4439734;32;34157;-60
2022/08/02 06:06:15;;;;;;;5.80;3.75;;;;;;;27.29;42.25;99595.88;4452409;32;34271;-62
2022/08/02 06:08:44;;;;;;;5.65;3.33;;;;;;;27.22;42.03;99591.47;4453297;32;33415;-61
2022/08/02 06:11:17;;;;;;;6.55;3.47;;;;;;;27.21;42.77;99595.31;4451638;32;33733;-60
2022/08/02 06:13:45;;;;;;;6.32;4.05;;;;;;;27.39;42.23;99603.59;4439989;32;34196;-60
2022/08/02 06:16:13;;;;;;;6.90;3.45;;;;;;;27.32;42.57;99608.28;4463732;32;34453;-61
2022/08/02 06:18:42;;;;;;;6.45;3.40;;;;;;;27.48;41.64;99599.47;4464218;32;33520;-61
2022/08/02 06:21:13;;;;;;;4.70;3.00;;;;;;;27.52;41.60;99597.94;4445815;32;32631;-61
2022/08/02 06:24:01;;;;;;;6.45;3.47;;;;;;;27.41;42.05;99593.19;4457585;32;34876;-61
2022/08/02 06:26:29;;;;;;;4.95;3.50;;;;;;;27.64;41.61;99595.28;4449521;32;33648;-61
2022/08/02 06:28:57;;;;;;;7.62;4.12;;;;;;;27.69;41.54;99600.06;4456085;32;33440;-62
2022/08/02 06:31:24;;;;;;;5.40;3.30;;;;;;;27.74;41.22;99603.81;4448508;32;33624;-61
2022/08/02 06:33:52;;;;;;;5.10;3.20;;;;;;;27.73;41.53;99604.03;4453217;32;33728;-62
2022/08/02 06:36:43;;;;;;;6.57;3.55;;;;;;;27.69;41.06;99608.31;4461339;32;34640;-62
2022/08/02 06:39:24;;;;;;;5.62;3.33;;;;;;;27.82;40.74;99603.53;4442963;32;33061;-60
2022/08/02 06:41:56;;;;;;;6.40;3.87;;;;;;;27.78;40.42;99602.31;4449030;32;33950;-62
2022/08/02 06:44:24;;;;;;;4.82;3.03;;;;;;;27.95;40.37;99602.50;4456733;32;34154;-61
2022/08/02 06:47:11;;;;;;;5.75;3.60;;;;;;;27.90;41.44;99607.03;4462496;32;34933;-62
2022/08/02 06:49:40;;;;;;;5.87;3.17;;;;;;;28.18;40.36;99621.03;4456451;32;33866;-60
2022/08/02 06:52:23;;;;;;;7.40;3.37;;;;;;;28.14;40.40;99614.31;4433905;32;33353;-61
2022/08/02 06:55:00;;;;;;;6.93;2.60;;;;;;;28.27;40.05;99625.13;4447726;32;34067;-62
2022/08/02 06:57:29;;;;;;;6.97;3.00;;;;;;;28.24;40.05;99613.75;4453360;32;33378;-62
2022/08/02 07:00:00;;;;;;;4.65;2.97;;;;;;;27.93;39.70;99618.44;4460578;32;32997;-62
2022/08/02 07:02:29;;;;;;;7.65;3.30;;;;;;;28.05;40.01;99605.53;4461182;32;33669;-62
2022/08/02 07:04:57;;;;;;;6.60;2.90;;;;;;;28.16;39.71;99608.59;4458056;32;33136;-61
2022/08/02 07:07:26;;;;;;;7.43;3.10;;;;;;;28.28;39.60;99603.97;4456365;32;34949;-62
2022/08/02 07:09:54;;;;;;;5.30;2.92;;;;;;;28.23;39.74;99610.19;4456156;32;33425;-61
2022/08/02 07:12:31;;;;;;;5.60;3.10;;;;;;;28.38;39.02;99603.41;4452645;32;34826;-62
2022/08/02 07:15:00;;;;;;;5.18;2.72;;;;;;;28.04;39.92;99598.38;4459347;32;33806;-62
2022/08/02 07:17:28;;;;;;;5.45;3.50;;;;;;;28.41;39.26;99597.47;4457579;32;35021;-61
2022/08/02 07:19:57;;;;;;;5.90;3.33;;;;;;;28.39;39.48;99597.69;4452440;32;34783;-61
2022/08/02 07:22:25;;;;;;;5.37;3.20;;;;;;;28.51;39.60;99601.34;4456602;32;33861;-62
2022/08/02 07:24:56;;;;;;;5.80;3.00;;;;;;;28.63;40.39;99606.84;4460691;32;32939;-61
2022/08/02 07:27:25;;;;;;;4.70;2.95;;;;;;;28.34;39.66;99600.28;4457222;32;33410;-61
2022/08/02 07:29:53;;;;;;;6.90;3.08;;;;;;;28.48;38.87;99598.22;4450742;32;34148;-62
2022/08/02 07:32:24;;;;;;;5.60;3.20;;;;;;;28.26;39.41;99601.47;4454176;32;33811;-61
2022/08/02 07:34:52;;;;;;;6.70;3.05;;;;;;;28.66;38.57;99597.28;4465419;32;35284;-61
2022/08/02 07:37:24;;;;;;;6.50;3.20;;;;;;;28.07;39.35;99599.81;4456046;32;35622;-61
2022/08/02 07:40:12;;;;;;;6.45;3.03;;;;;;;28.36;39.39;99592.62;4451594;32;31633;-62
2022/08/02 07:42:50;;;;;;;5.20;2.58;;;;;;;28.33;39.55;99587.59;4458235;32;34689;-61
2022/08/02 07:45:19;;;;;;;4.57;2.72;;;;;;;28.64;37.94;99591.19;4452350;32;35031;-62
2022/08/02 07:47:48;;;;;;;5.93;3.20;;;;;;;28.95;37.48;99592.78;4451204;32;33851;-62
2022/08/02 07:50:17;;;;;;;6.10;3.40;;;;;;;29.02;37.71;99588.87;4454519;32;33268;-61
2022/08/02 07:52:46;;;;;;;5.20;3.00;;;;;;;29.17;37.18;99588.38;4460187;32;33830;-61
2022/08/02 07:55:14;;;;;;;5.53;3.10;;;;;;;29.10;37.71;99595.94;4455964;32;33791;-61
2022/08/02 07:57:43;;;;;;;8.18;3.45;;;;;;;29.11;38.02;99589.34;4458186;32;33505;-61
2022/08/02 08:00:17;;;;;;;4.68;2.83;;;;;;;29.04;38.59;99588.63;4466327;32;33255;-62
2022/08/02 08:02:45;;;;;;;4.75;2.75;;;;;;;28.78;38.76;99589.87;4462533;32;33655;-62
2022/08/02 08:05:13;;;;;;;5.62;2.95;;;;;;;29.33;37.70;99586.81;4460986;32;32803;-62
2022/08/02 08:07:41;;;;;;;6.75;3.75;;;;;;;28.96;37.88;99594.47;4467259;32;34172;-61
2022/08/02 08:10:09;;;;;;;5.18;3.17;;;;;;;29.02;37.63;99590.75;4461650;32;34722;-62
2022/08/02 08:12:37;;;;;;;6.95;3.55;;;;;;;29.41;37.64;99591.13;4462267;32;32530;-62
2022/08/02 08:15:05;;;;;;;4.62;2.95;;;;;;;29.65;37.08;99591.94;4464207;32;34105;-62
2022/08/02 08:17:33;;;;;;;6.35;3.00;;;;;;;29.58;36.67;99592.06;4460649;32;33848;-61
2022/08/02 08:20:02;;;;;;;6.82;3.20;;;;;;;29.45;36.73;99601.41;4463098;32;32201;-62
2022/08/02 08:22:30;;;;;;;7.45;3.12;;;;;;;29.75;37.12;99602.34;4448440;32;33524;-61
2022/08/02 08:24:58;;;;;;;5.10;3.03;;;;;;;30.03;36.07;99598.81;4458461;32;34111;-61
2022/08/02 08:27:25;;;;;;;4.40;2.60;;;;;;;30.01;36.28;99595.44;4467300;32;33795;-62
2022/08/02 08:29:53;;;;;;;9.23;3.47;;;;;;;30.31;34.98;99592.47;4460349;32;33425;-61
2022/08/02 08:32:20;;;;;;;7.37;2.78;;;;;;;29.24;36.11;99602.03;4467671;32;32610;-61
2022/08/02 08:34:50;;;;;;;6.40;3.80;;;;;;;29.41;36.59;99605.75;4458558;32;33984;-62
2022/08/02 08:37:18;;;;;;;5.70;3.22;;;;;;;29.60;36.43;99606.47;4455159;32;34920;-62
2022/08/02 08:39:46;;;;;;;5.10;2.85;;;;;;;29.90;35.73;99609.03;4466823;32;34493;-62
2022/08/02 08:42:29;;;;;;;6.95;2.95;;;;;;;29.90;34.58;99608.19;4468514;32;33991;-62
2022/08/02 08:44:58;;;;;;;4.70;2.72;;;;;;;30.25;34.06;99599.00;4462101;32;33685;-62
2022/08/02 08:47:39;;;;;;;5.97;3.15;;;;;;;30.14;34.50;99601.53;4458778;32;32529;-62
2022/08/02 08:50:10;;;;;;;5.90;2.70;;;;;;;30.26;34.71;99598.72;4460696;32;34479;-62
2022/08/02 08:52:52;;;;;;;6.35;2.90;;;;;;;29.84;34.80;99610.00;4460215;32;33281;-62
2022/08/02 08:55:23;;;;;;;5.32;2.60;;;;;;;30.43;34.22;99598.75;4442742;32;33738;-62
2022/08/02 08:57:51;;;;;;;3.78;2.55;;;;;;;30.45;34.11;99601.28;4459158;32;34724;-62
2022/08/02 09:00:20;;;;;;;5.82;2.83;;;;;;;30.54;33.11;99603.38;4460919;32;33416;-61
2022/08/02 09:02:48;;;;;;;4.12;2.15;;;;;;;30.72;33.28;99609.75;4460743;32;32359;-61
2022/08/02 09:05:16;;;;;;;4.70;1.95;;;;;;;30.59;31.92;99611.78;4452932;32;34004;-62
2022/08/02 09:07:47;;;;;;;4.87;1.80;;;;;;;30.60;31.67;99609.84;4456526;32;34546;-61
2022/08/02 09:10:30;;;;;;;4.32;1.77;;;;;;;30.35;31.89;99601.94;4459376;32;34302;-62
2022/08/02 09:13:19;;;;;;;7.03;2.00;;;;;;;30.92;31.51;99610.16;4454661;32;33864;-62
2022/08/02 09:16:06;;;;;;;3.05;1.70;;;;;;;30.81;30.49;99609.12;4463230;32;34995;-61
2022/08/02 09:18:44;;;;;;;4.07;1.80;;;;;;;30.57;31.17;99602.91;4463635;32;34701;-62
2022/08/02 09:21:15;;;;;;;4.18;1.95;;;;;;;30.87;30.51;99610.06;4452024;32;33181;-61
2022/08/02 09:23:45;;;;;;;3.70;1.83;;;;;;;30.89;30.52;99607.88;4458226;32;35182;-62
2022/08/02 09:26:14;;;;;;;3.70;1.75;;;;;;;30.88;30.55;99613.66;4452499;32;32716;-61
2022/08/02 09:28:45;;;;;;;3.90;1.70;;;;;;;30.63;30.19;99615.72;4453589;32;33669;-62
2022/08/02 09:31:21;;;;;;;4.12;2.20;;;;;;;30.94;30.16;99615.41;4451773;32;31992;-61
2022/08/02 09:33:59;;;;;;;3.55;1.90;;;;;;;31.12;29.94;99606.88;4451488;32;34016;-62
2022/08/02 09:36:36;;;;;;;4.12;1.87;;;;;;;31.22;30.53;99606.19;4453760;32;35475;-61
2022/08/02 09:39:08;;;;;;;2.67;1.65;;;;;;;31.53;29.21;99613.88;4454155;32;35541;-62
2022/08/02 09:41:40;;;;;;;4.20;2.00;;;;;;;31.21;29.82;99601.75;4454321;32;33318;-62
2022/08/02 09:44:09;;;;;;;4.53;2.25;;;;;;;31.07;30.13;99604.84;4453054;32;32265;-61
2022/08/02 09:46:44;;;;;;;3.53;1.67;;;;;;;30.93;30.64;99611.81;4455023;32;33636;-63
2022/08/02 09:49:17;;;;;;;3.33;1.92;;;;;;;31.18;30.70;99614.16;4453020;32;34358;-62
2022/08/02 09:51:48;;;;;;;3.03;1.75;;;;;;;31.22;30.69;99606.19;4454092;32;32334;-63
2022/08/02 09:54:18;;;;;;;4.15;2.05;;;;;;;31.49;30.97;99606.31;4456796;32;35018;-62
2022/08/02 09:56:54;;;;;;;5.50;2.08;;;;;;;31.35;30.99;99602.25;4456721;32;32875;-62
2022/08/02 09:59:25;;;;;;;3.12;1.87;;;;;;;31.87;30.28;99597.13;4462918;32;33335;-61
2022/08/02 10:01:55;;;;;;;3.85;2.00;;;;;;;31.76;30.55;99592.59;4460300;32;33467;-61
2022/08/02 10:04:30;;;;;;;4.43;2.10;;;;;;;32.24;30.05;99589.03;4453482;32;33264;-62
2022/08/02 10:07:05;;;;;;;2.95;1.95;;;;;;;32.15;29.88;99595.28;4454407;32;34014;-62
2022/08/02 10:09:33;;;;;;;4.68;2.35;;;;;;;32.33;30.26;99596.84;4445503;32;32536;-61
2022/08/02 10:12:01;;;;;;;5.25;2.20;;;;;;;32.05;31.10;99598.78;4459839;32;33269;-61
2022/08/02 10:14:32;;;;;;;9.57;2.75;;;;;;;32.16;30.75;99594.19;4458072;32;33601;-62
2022/08/02 10:17:00;;;;;;;5.03;2.28;;;;;;;32.20;30.58;99590.66;4454950;32;33569;-63
2022/08/02 10:19:28;;;;;;;5.20;1.98;;;;;;;32.37;29.42;99581.41;4448087;32;32712;-63
2022/08/02 10:22:16;;;;;;;4.40;2.10;;;;;;;31.87;29.80;99577.75;4452103;32;32753;-62
2022/08/02 10:24:46;;;;;;;4.53;2.25;;;;;;;31.90;30.38;99574.50;4440649;32;33479;-62
2022/08/02 10:27:19;;;;;;;3.85;2.12;;;;;;;31.62;31.03;99588.50;4455286;32;33829;-63
2022/08/02 10:29:50;;;;;;;4.80;2.30;;;;;;;31.57;31.28;99580.16;4458123;32;33971;-65
2022/08/02 10:32:42;;;;;;;4.97;2.20;;;;;;;32.01;30.09;99578.25;4456701;32;34728;-64
2022/08/02 10:35:15;;;;;;;3.45;2.25;;;;;;;31.93;30.37;99573.16;4446179;32;33777;-65
2022/08/02 10:37:59;;;;;;;3.33;2.10;;;;;;;32.09;30.84;99580.53;4461045;32;35226;-65
2022/08/02 10:40:49;;;;;;;3.87;2.22;;;;;;;32.15;30.74;99562.91;4443495;32;32483;-63
2022/08/02 10:43:35;;;;;;;4.85;2.30;;;;;;;32.59;29.39;99564.75;4444912;32;32372;-65
2022/08/02 10:46:32;;;;;;;4.07;2.20;;;;;;;32.87;29.74;99572.72;4460645;32;34301;-65
2022/08/02 10:49:07;;;;;;;4.45;2.40;;;;;;;32.58;30.45;99574.97;4450268;32;32320;-65
2022/08/02 10:52:01;;;;;;;4.47;2.70;;;;;;;32.17;29.92;99570.97;4462225;32;33845;-65
2022/08/02 10:54:40;;;;;;;2.62;1.87;;;;;;;31.85;30.39;99571.66;4457041;32;34527;-64
2022/08/02 10:57:24;;;;;;;5.82;2.47;;;;;;;31.95;29.63;99565.44;4459759;32;32943;-65
2022/08/02 11:00:15;;;;;;;;;;;;;;;32.12;29.43;99574.50;4457900;32;34906;-65
2022/08/02 11:02:47;;;;;;;3.40;2.12;;;;;;;31.83;29.55;99573.84;4454277;32;32713;-63
2022/08/02 11:05:29;;;;;;;10.38;2.42;;;;;;;31.31;30.33;99568.72;4457480;32;32415;-64
2022/08/02 11:08:18;;;;;;;3.60;2.28;;;;;;;31.06;31.13;99566.41;4456797;32;32674;-64
2022/08/02 11:10:46;;;;;;;3.65;2.30;;;;;;;31.11;31.43;99569.28;4459619;32;34217;-63
2022/08/02 11:13:16;;;;;;;5.20;2.25;;;;;;;31.47;30.85;99559.56;4446485;32;35389;-64
2022/08/02 11:15:56;;;;;;;4.05;2.05;;;;;;;31.77;30.02;99559.09;4463263;32;31946;-64
2022/08/02 11:18:49;;;;;;;3.45;2.00;;;;;;;31.32;31.45;99551.03;4462818;32;33218;-65
2022/08/02 11:21:21;;;;;;;5.53;2.45;;;;;;;30.80;31.95;99543.91;4464274;32;34686;-64
2022/08/02 11:23:50;;;;;;;4.28;1.92;;;;;;;30.50;32.08;99562.69;4462491;32;34991;-64
2022/08/02 11:26:30;;;;;;;4.00;2.10;;;;;;;30.41;32.67;99567.81;4460063;32;34007;-63
2022/08/02 11:29:03;;;;;;;3.35;1.98;;;;;;;30.06;33.39;99563.28;4461260;32;35089;-64
2022/08/02 11:31:41;;;;;;;4.45;2.28;;;;;;;30.57;32.34;99561.47;4447217;32;33381;-66
2022/08/02 11:34:10;;;;;;;5.55;2.45;;;;;;;30.51;32.17;99561.63;4459644;32;33583;-66
2022/08/02 11:36:58;;;;;;;5.03;2.20;;;;;;;30.85;31.49;99557.81;4455678;32;33430;-65
2022/08/02 11:39:26;;;;;;;5.10;2.58;;;;;;;31.28;31.41;99550.72;4458404;32;33141;-65
2022/08/02 11:41:59;;;;;;;4.65;1.80;;;;;;;31.31;30.64;99552.97;4455680;32;35286;-64
2022/08/02 11:44:29;;;;;;;3.90;2.08;;;;;;;31.34;30.46;99550.81;4462775;32;33660;-63
2022/08/02 11:47:00;;;;;;;4.35;2.08;;;;;;;31.40;31.03;99555.34;4461421;32;33292;-65
2022/08/02 11:49:28;;;;;;;6.40;2.45;;;;;;;31.61;30.41;99556.41;4459513;32;34756;-66
2022/08/02 11:52:04;;;;;;;5.15;1.90;;;;;;;31.39;30.58;99554.47;4454914;32;33742;-63
2022/08/02 11:54:32;;;;;;;5.45;1.90;;;;;;;31.57;31.12;99545.03;4460656;32;32377;-64
2022/08/02 11:57:21;;;;;;;3.22;1.70;;;;;;;30.72;32.05;99552.56;4459300;32;34479;-64
2022/08/02 11:59:51;;;;;;;4.22;2.40;;;;;;;30.24;33.10;99550.38;4460395;32;34009;-64
2022/08/02 12:02:24;;;;;;;6.47;2.37;;;;;;;30.04;33.87;99553.56;4450249;32;33247;-64
2022/08/02 12:04:58;;;;;;;4.82;2.20;;;;;;;30.30;33.26;99550.22;4460028;32;34687;-64
2022/08/02 12:07:30;;;;;;;2.90;1.80;;;;;;;30.79;31.91;99561.59;4456372;32;32539;-65
2022/08/02 12:10:21;;;;;;;3.78;2.12;;;;;;;30.85;31.75;99560.59;4455337;32;33995;-63